createdAt,value
2019-03-20T00:02:30.700Z,12.71
2019-03-20T00:05:01.292Z,12.69
2019-03-20T00:07:32.233Z,12.57
2019-03-20T00:10:02.847Z,12.49
2019-03-20T00:12:33.274Z,12.47
2019-03-20T00:15:03.943Z,12.51
2019-03-20T00:17:34.610Z,12.47
2019-03-20T00:20:05.482Z,12.44
2019-03-20T00:22:35.999Z,12.52
2019-03-20T00:25:07.343Z,12.61
2019-03-20T00:27:37.887Z,12.56
2019-03-20T00:30:09.046Z,12.38
2019-03-20T00:32:39.940Z,12.22
2019-03-20T00:35:10.835Z,12.12
2019-03-20T00:37:41.481Z,11.98
2019-03-20T00:40:13.183Z,11.81
2019-03-20T00:42:43.903Z,11.50
2019-03-20T00:45:14.616Z,11.68
2019-03-20T00:47:45.167Z,11.86
2019-03-20T00:50:18.746Z,11.83
2019-03-20T00:52:49.394Z,11.66
2019-03-20T00:55:20.273Z,11.68
2019-03-20T00:57:50.912Z,11.64
2019-03-20T01:00:21.623Z,11.70
2019-03-20T01:02:52.422Z,11.79
2019-03-20T01:05:23.695Z,11.73
2019-03-20T01:07:54.486Z,11.77
2019-03-20T01:10:25.157Z,11.67
2019-03-20T01:12:58.316Z,11.58
2019-03-20T01:15:29.142Z,11.42
2019-03-20T01:17:59.790Z,11.21
2019-03-20T01:20:31.207Z,11.05
2019-03-20T01:23:01.915Z,10.97
2019-03-20T01:25:35.047Z,10.90
2019-03-20T01:28:05.345Z,10.84
2019-03-20T01:30:37.072Z,10.76
2019-03-20T01:33:09.335Z,10.70
2019-03-20T01:35:40.360Z,10.70
2019-03-20T01:38:11.186Z,10.72
2019-03-20T01:40:41.832Z,10.76
2019-03-20T01:43:12.512Z,10.81
2019-03-20T01:45:43.374Z,10.84
2019-03-20T01:48:13.973Z,10.88
2019-03-20T01:50:46.440Z,10.82
2019-03-20T01:53:17.017Z,10.77
2019-03-20T01:55:47.682Z,10.72
2019-03-20T01:58:19.975Z,10.68
2019-03-20T02:00:50.505Z,10.69
2019-03-20T02:03:21.004Z,10.75
2019-03-20T02:05:51.506Z,10.77
2019-03-20T02:08:22.055Z,10.83
2019-03-20T02:10:53.701Z,11.00
2019-03-20T02:13:24.240Z,11.22
2019-03-20T02:15:54.639Z,11.44
2019-03-20T02:18:25.072Z,11.56
2019-03-20T02:20:55.675Z,11.80
2019-03-20T02:23:26.242Z,11.92
2019-03-20T02:25:56.719Z,12.16
2019-03-20T02:28:28.607Z,12.24
2019-03-20T02:31:01.797Z,12.35
2019-03-20T02:33:32.718Z,12.42
2019-03-20T02:36:03.567Z,12.50
2019-03-20T02:38:34.233Z,12.55
2019-03-20T02:41:06.434Z,12.58
2019-03-20T02:43:37.049Z,12.62
2019-03-20T02:46:08.815Z,12.60
2019-03-20T02:48:39.408Z,12.61
2019-03-20T02:51:10.236Z,12.58
2019-03-20T02:53:42.400Z,12.52
2019-03-20T02:56:13.002Z,12.50
2019-03-20T02:58:43.417Z,12.50
2019-03-20T03:01:14.204Z,12.49
2019-03-20T03:03:46.494Z,12.39
2019-03-20T03:06:17.095Z,12.26
2019-03-20T03:08:47.854Z,12.16
2019-03-20T03:11:18.554Z,12.00
2019-03-20T03:13:48.994Z,11.81
2019-03-20T03:16:19.778Z,11.75
2019-03-20T03:18:53.095Z,11.58
2019-03-20T03:21:23.666Z,11.55
2019-03-20T03:23:54.379Z,11.32
2019-03-20T03:26:25.189Z,11.32
2019-03-20T03:28:56.151Z,11.20
2019-03-20T03:31:26.874Z,11.14
2019-03-20T03:33:57.483Z,11.10
2019-03-20T03:36:28.302Z,11.06
2019-03-20T03:38:59.237Z,11.04
2019-03-20T03:41:29.825Z,11.00
2019-03-20T03:44:00.547Z,11.11
2019-03-20T03:46:31.370Z,11.05
2019-03-20T03:49:02.057Z,11.09
2019-03-20T03:51:33.123Z,11.25
2019-03-20T03:54:06.139Z,11.38
2019-03-20T03:56:36.604Z,11.46
2019-03-20T03:59:07.226Z,11.54
2019-03-20T04:01:37.988Z,11.65
2019-03-20T04:04:08.751Z,11.73
2019-03-20T04:06:39.247Z,11.77
2019-03-20T04:09:10.039Z,11.79
2019-03-20T04:11:42.585Z,11.78
2019-03-20T04:14:14.657Z,11.77
2019-03-20T04:16:45.342Z,11.75
2019-03-20T04:19:16.088Z,11.78
2019-03-20T04:21:46.862Z,11.68
2019-03-20T04:24:17.360Z,11.54
2019-03-20T04:26:47.948Z,11.53
2019-03-20T04:29:18.902Z,11.55
2019-03-20T04:31:49.384Z,11.46
2019-03-20T04:34:19.934Z,11.39
2019-03-20T04:36:50.513Z,11.31
2019-03-20T04:39:21.131Z,11.17
2019-03-20T04:41:52.550Z,11.08
2019-03-20T04:44:23.179Z,11.04
2019-03-20T04:46:54.943Z,11.03
2019-03-20T04:49:25.696Z,11.00
2019-03-20T04:51:56.147Z,10.88
2019-03-20T04:54:26.610Z,10.95
2019-03-20T04:56:57.313Z,10.98
2019-03-20T04:59:28.156Z,11.00
2019-03-20T05:01:58.840Z,11.06
2019-03-20T05:04:29.628Z,11.02
2019-03-20T05:07:00.494Z,11.08
2019-03-20T05:09:30.973Z,11.20
2019-03-20T05:12:01.858Z,11.33
2019-03-20T05:14:32.406Z,11.47
2019-03-20T05:17:03.421Z,11.63
2019-03-20T05:19:35.967Z,11.79
2019-03-20T05:22:07.028Z,11.99
2019-03-20T05:24:37.549Z,12.14
2019-03-20T05:27:08.185Z,12.20
2019-03-20T05:29:38.914Z,12.30
2019-03-20T05:32:09.856Z,12.37
2019-03-20T05:34:40.761Z,12.43
2019-03-20T05:37:11.147Z,12.60
2019-03-20T05:39:42.864Z,12.67
2019-03-20T05:42:13.445Z,12.80
2019-03-20T05:44:44.216Z,12.87
2019-03-20T05:47:15.153Z,12.93
2019-03-20T05:49:46.016Z,12.98
2019-03-20T05:52:18.057Z,13.18
2019-03-20T05:54:49.644Z,13.27
2019-03-20T05:57:20.543Z,13.40
2019-03-20T05:59:51.348Z,13.41
2019-03-20T06:02:22.283Z,13.58
2019-03-20T06:04:52.865Z,13.67
2019-03-20T06:07:23.716Z,13.85
2019-03-20T06:09:54.259Z,13.96
2019-03-20T06:12:25.008Z,14.02
2019-03-20T06:14:57.176Z,14.14
2019-03-20T06:17:27.799Z,14.25
2019-03-20T06:19:58.416Z,14.40
2019-03-20T06:22:31.704Z,14.58
2019-03-20T06:25:02.336Z,14.68
2019-03-20T06:27:36.122Z,14.81
2019-03-20T06:30:07.699Z,14.80
2019-03-20T06:32:38.582Z,14.78
2019-03-20T06:35:09.863Z,14.89
2019-03-20T06:37:40.413Z,15.01
2019-03-20T06:40:11.592Z,15.17
2019-03-20T06:42:42.374Z,15.26
2019-03-20T06:45:13.636Z,15.33
2019-03-20T06:47:44.105Z,15.46
2019-03-20T06:50:15.798Z,15.43
2019-03-20T06:52:46.498Z,15.47
2019-03-20T06:55:17.285Z,15.42
2019-03-20T06:57:47.584Z,15.45
2019-03-20T07:01:00.990Z,15.59
2019-03-20T07:03:38.133Z,15.77
2019-03-20T07:06:33.691Z,15.97
2019-03-20T07:09:34.051Z,16.08
2019-03-20T07:12:04.636Z,16.10
2019-03-20T07:14:35.031Z,16.22
2019-03-20T07:17:05.820Z,16.32
2019-03-20T07:19:38.097Z,16.49
2019-03-20T07:22:08.666Z,16.68
2019-03-20T07:24:39.319Z,16.81
2019-03-20T07:27:09.976Z,16.84
2019-03-20T07:29:43.976Z,16.83
2019-03-20T07:32:14.864Z,17.01
2019-03-20T07:34:45.345Z,17.02
2019-03-20T07:37:16.031Z,16.82
2019-03-20T07:39:46.707Z,16.68
2019-03-20T07:42:17.337Z,16.93
2019-03-20T07:44:47.931Z,17.32
2019-03-20T07:47:18.421Z,17.81
2019-03-20T07:49:49.129Z,18.19
2019-03-20T07:52:20.090Z,18.94
2019-03-20T07:54:50.639Z,19.74
2019-03-20T07:57:21.108Z,20.99
2019-03-20T07:59:51.956Z,22.34
2019-03-20T08:02:23.041Z,23.20
2019-03-20T08:04:53.467Z,23.83
2019-03-20T08:07:45.848Z,23.03
2019-03-20T08:10:30.275Z,22.79
2019-03-20T08:13:33.651Z,22.15
2019-03-20T08:17:06.355Z,21.53
2019-03-20T08:19:53.783Z,21.20
2019-03-20T08:23:20.990Z,21.03
2019-03-20T08:25:51.624Z,21.53
2019-03-20T08:28:22.054Z,22.42
2019-03-20T08:30:52.587Z,23.23
2019-03-20T08:33:22.638Z,23.42
2019-03-20T08:35:52.487Z,24.12
2019-03-20T08:38:22.476Z,25.60
2019-03-20T08:40:55.073Z,26.70
2019-03-20T08:43:25.156Z,27.65
2019-03-20T08:49:33.575Z,27.99
2019-03-20T08:52:03.899Z,27.26
2019-03-20T08:54:34.095Z,27.24
2019-03-20T08:57:04.393Z,28.29
2019-03-20T09:03:57.487Z,29.17
2019-03-20T09:06:27.754Z,30.06
2019-03-20T09:08:58.069Z,30.10
2019-03-20T09:11:28.405Z,30.49
2019-03-20T09:13:58.766Z,30.79
2019-03-20T09:16:29.074Z,31.86
2019-03-20T09:19:02.388Z,32.79
2019-03-20T09:21:32.722Z,33.78
2019-03-20T09:24:05.719Z,35.18
2019-03-20T09:26:36.085Z,36.41
2019-03-20T09:29:17.958Z,37.43
2019-03-20T09:31:38.545Z,38.12
2019-03-20T09:34:08.572Z,37.35
2019-03-20T09:36:43.014Z,36.81
2019-03-20T09:39:13.804Z,37.12
2019-03-20T09:41:44.499Z,37.51
2019-03-20T09:44:16.920Z,38.14
2019-03-20T09:46:46.967Z,38.49
2019-03-20T09:49:43.616Z,38.99
2019-03-20T09:52:13.447Z,39.44
2019-03-20T09:54:43.059Z,40.34
2019-03-20T09:57:12.792Z,39.14
2019-03-20T09:59:43.019Z,39.17
2019-03-20T10:02:13.418Z,39.10
2019-03-20T10:04:43.280Z,38.76
2019-03-20T10:07:19.067Z,38.17
2019-03-20T10:09:48.795Z,39.47
2019-03-20T10:12:19.203Z,40.57
2019-03-20T10:14:49.375Z,40.97
2019-03-20T10:17:19.823Z,40.50
2019-03-20T10:19:49.716Z,40.82
2019-03-20T10:22:20.065Z,41.06
2019-03-20T10:24:53.154Z,40.93
2019-03-20T10:27:22.899Z,41.65
2019-03-20T10:29:57.104Z,42.38
2019-03-20T10:32:27.347Z,41.36
2019-03-20T10:34:57.958Z,40.80
2019-03-20T10:37:27.894Z,40.55
2019-03-20T10:39:57.902Z,41.30
2019-03-20T10:42:27.932Z,42.64
2019-03-20T10:44:57.678Z,42.07
2019-03-20T10:47:27.914Z,41.25
2019-03-20T10:49:58.187Z,39.64
2019-03-20T10:52:28.290Z,40.05
2019-03-20T10:54:58.021Z,40.28
2019-03-20T10:57:27.761Z,40.08
2019-03-20T10:59:57.813Z,40.53
2019-03-20T11:02:27.641Z,40.51
2019-03-20T11:04:57.327Z,41.44
2019-03-20T11:07:27.143Z,42.10
2019-03-20T11:09:57.317Z,42.53
2019-03-20T11:12:27.392Z,41.86
2019-03-20T11:14:57.601Z,39.80
2019-03-20T11:17:27.609Z,39.95
2019-03-20T11:19:57.658Z,38.67
2019-03-20T11:22:27.492Z,39.54
2019-03-20T11:24:57.579Z,39.67
2019-03-20T11:27:27.795Z,38.07
2019-03-20T11:29:57.804Z,37.45
2019-03-20T11:32:27.610Z,38.67
2019-03-20T11:34:57.768Z,38.14
2019-03-20T11:37:27.694Z,37.50
2019-03-20T11:39:57.507Z,36.71
2019-03-20T11:42:27.831Z,37.13
2019-03-20T11:44:57.974Z,37.60
2019-03-20T11:47:28.407Z,37.16
2019-03-20T11:49:58.674Z,37.19
2019-03-20T11:52:29.030Z,37.16
2019-03-20T11:54:59.318Z,37.46
2019-03-20T11:57:29.459Z,37.18
2019-03-20T11:59:59.856Z,38.18
2019-03-20T12:02:30.077Z,37.70
2019-03-20T12:05:00.408Z,38.91
2019-03-20T12:07:30.726Z,39.10
2019-03-20T12:10:01.013Z,40.10
2019-03-20T12:12:31.215Z,40.92
2019-03-20T12:15:01.398Z,39.68
2019-03-20T12:17:31.579Z,39.44
2019-03-20T12:20:01.694Z,38.17
2019-03-20T12:22:31.769Z,37.63
2019-03-20T12:25:02.110Z,39.12
2019-03-20T12:27:31.855Z,39.05
2019-03-20T12:30:02.387Z,39.45
2019-03-20T12:32:32.655Z,39.12
2019-03-20T12:35:02.927Z,39.04
2019-03-20T12:37:33.358Z,37.52
2019-03-20T12:40:03.767Z,36.78
2019-03-20T12:42:33.839Z,35.32
2019-03-20T12:45:04.070Z,35.18
2019-03-20T12:47:34.044Z,36.15
2019-03-20T12:50:04.611Z,36.00
2019-03-20T12:52:34.708Z,35.12
2019-03-20T12:55:04.944Z,35.03
2019-03-20T12:57:34.719Z,35.68
2019-03-20T13:00:05.883Z,35.66
2019-03-20T13:02:36.293Z,36.15
2019-03-20T13:05:07.311Z,36.84
2019-03-20T13:07:37.371Z,35.64
2019-03-20T13:10:08.653Z,35.77
2019-03-20T13:12:38.641Z,34.74
2019-03-20T13:15:10.394Z,34.09
2019-03-20T13:17:40.438Z,34.54
2019-03-20T13:20:11.581Z,34.13
2019-03-20T13:22:41.680Z,34.18
2019-03-20T13:25:12.848Z,32.94
2019-03-20T13:27:43.292Z,32.29
2019-03-20T13:30:20.491Z,31.93
2019-03-20T13:32:48.693Z,31.29
2019-03-20T13:35:19.372Z,30.87
2019-03-20T13:37:49.477Z,30.96
2019-03-20T13:40:19.573Z,30.00
2019-03-20T13:42:49.777Z,29.70
2019-03-20T13:45:20.438Z,28.68
2019-03-20T13:47:50.632Z,27.97
2019-03-20T13:50:21.497Z,27.52
2019-03-20T13:52:51.892Z,26.64
2019-03-20T13:55:22.433Z,25.99
2019-03-20T13:57:53.041Z,26.01
2019-03-20T14:00:24.069Z,25.02
2019-03-20T14:02:54.458Z,24.27
2019-03-20T14:05:25.065Z,23.90
2019-03-20T14:07:55.805Z,23.77
2019-03-20T14:10:26.231Z,23.72
2019-03-20T14:12:56.622Z,23.63
2019-03-20T14:15:26.695Z,22.95
2019-03-20T14:17:56.990Z,22.64
2019-03-20T14:20:27.647Z,22.68
2019-03-20T14:22:57.458Z,22.88
2019-03-20T14:25:27.552Z,22.60
2019-03-20T14:27:58.273Z,22.61
2019-03-20T14:30:28.550Z,22.49
2019-03-20T14:32:58.726Z,22.35
2019-03-20T14:35:29.055Z,22.17
2019-03-20T14:37:59.449Z,21.86
2019-03-20T14:40:37.434Z,21.92
2019-03-20T14:43:02.320Z,21.88
2019-03-20T14:45:32.872Z,21.78
2019-03-20T14:48:02.979Z,21.55
2019-03-20T14:50:32.922Z,21.64
2019-03-20T14:53:02.992Z,21.37
2019-03-20T14:55:33.368Z,21.36
2019-03-20T14:58:03.461Z,20.93
2019-03-20T15:00:33.858Z,20.65
2019-03-20T15:03:04.156Z,20.49
2019-03-20T15:05:34.544Z,20.24
2019-03-20T15:08:04.699Z,20.24
2019-03-20T15:10:34.805Z,20.21
2019-03-20T15:13:05.249Z,19.96
2019-03-20T15:15:41.196Z,19.75
2019-03-20T15:18:11.765Z,19.75
2019-03-20T15:20:42.030Z,19.50
2019-03-20T15:23:12.045Z,19.26
2019-03-20T15:25:42.349Z,19.05
2019-03-20T15:28:12.499Z,19.21
2019-03-20T15:30:42.754Z,19.09
2019-03-20T15:33:12.794Z,18.61
2019-03-20T15:35:43.152Z,18.43
2019-03-20T15:38:13.624Z,18.36
2019-03-20T15:40:44.148Z,18.40
2019-03-20T15:43:14.097Z,18.36
2019-03-20T15:45:44.128Z,18.28
2019-03-20T15:48:14.397Z,18.09
2019-03-20T15:50:44.584Z,18.07
2019-03-20T15:53:14.783Z,18.05
2019-03-20T15:55:45.340Z,17.97
2019-03-20T15:58:15.581Z,17.75
2019-03-20T16:00:45.901Z,17.69
2019-03-20T16:03:16.970Z,17.68
2019-03-20T16:05:47.698Z,17.75
2019-03-20T16:08:18.099Z,17.48
2019-03-20T16:10:48.456Z,17.58
2019-03-20T16:13:19.002Z,17.35
2019-03-20T16:15:49.241Z,17.35
2019-03-20T16:18:19.478Z,17.28
2019-03-20T16:20:49.853Z,17.12
2019-03-20T16:23:20.338Z,16.97
2019-03-20T16:25:50.665Z,16.84
2019-03-20T16:28:20.687Z,16.86
2019-03-20T16:30:50.681Z,16.83
2019-03-20T16:33:21.260Z,16.73
2019-03-20T16:35:51.816Z,16.63
2019-03-20T16:38:22.333Z,16.53
2019-03-20T16:40:52.830Z,16.39
2019-03-20T16:43:23.087Z,16.30
2019-03-20T16:45:53.374Z,16.29
2019-03-20T16:48:23.794Z,16.12
2019-03-20T16:50:54.466Z,16.08
2019-03-20T16:53:24.935Z,16.03
2019-03-20T16:55:56.493Z,15.96
2019-03-20T16:58:26.904Z,15.89
2019-03-20T17:00:57.469Z,15.82
2019-03-20T17:03:27.529Z,15.77
2019-03-20T17:05:57.725Z,15.78
2019-03-20T17:08:28.122Z,15.74
2019-03-20T17:10:58.547Z,15.61
2019-03-20T17:13:29.076Z,15.66
2019-03-20T17:15:59.304Z,15.62
2019-03-20T17:18:29.820Z,15.54
2019-03-20T17:20:59.937Z,15.49
2019-03-20T17:23:30.349Z,15.48
2019-03-20T17:26:00.890Z,15.45
2019-03-20T17:28:31.653Z,15.42
2019-03-20T17:31:02.055Z,15.39
2019-03-20T17:33:32.294Z,15.37
2019-03-20T17:36:02.747Z,15.30
2019-03-20T17:38:33.011Z,15.22
2019-03-20T17:41:03.510Z,15.04
2019-03-20T17:43:34.093Z,15.07
2019-03-20T17:46:05.098Z,14.95
2019-03-20T17:48:35.655Z,15.03
2019-03-20T17:51:06.285Z,15.04
2019-03-20T17:53:37.044Z,14.96
2019-03-20T17:56:07.622Z,14.82
2019-03-20T17:58:38.993Z,14.79
2019-03-20T18:01:09.405Z,14.89
2019-03-20T18:03:39.485Z,14.81
2019-03-20T18:06:09.749Z,14.79
2019-03-20T18:08:41.739Z,14.65
2019-03-20T18:11:12.113Z,14.62
2019-03-20T18:13:42.427Z,14.54
2019-03-20T18:16:12.835Z,14.50
2019-03-20T18:18:43.223Z,14.48
2019-03-20T18:21:13.521Z,14.41
2019-03-20T18:23:43.665Z,14.44
2019-03-20T18:26:14.118Z,14.34
2019-03-20T18:28:44.567Z,14.40
2019-03-20T18:31:15.509Z,14.35
2019-03-20T18:33:45.874Z,14.37
2019-03-20T18:36:16.315Z,14.16
2019-03-20T18:38:46.529Z,14.28
2019-03-20T18:41:17.284Z,14.18
2019-03-20T18:43:47.752Z,14.29
2019-03-20T18:46:18.410Z,14.15
2019-03-20T18:48:48.986Z,14.16
2019-03-20T18:51:19.506Z,14.17
2019-03-20T18:53:50.419Z,14.24
2019-03-20T18:56:20.607Z,14.20
2019-03-20T18:58:51.184Z,14.13
2019-03-20T19:01:21.855Z,14.14
2019-03-20T19:03:52.312Z,14.16
2019-03-20T19:06:25.229Z,14.07
2019-03-20T19:08:55.772Z,14.14
2019-03-20T19:11:26.323Z,14.11
2019-03-20T19:13:56.458Z,14.05
2019-03-20T19:16:26.932Z,14.04
2019-03-20T19:18:57.607Z,13.85
2019-03-20T19:21:28.096Z,13.59
2019-03-20T19:23:58.454Z,13.70
2019-03-20T19:26:31.042Z,13.74
2019-03-20T19:29:01.347Z,13.78
2019-03-20T19:31:31.817Z,13.68
2019-03-20T19:34:02.207Z,13.66
2019-03-20T19:36:32.630Z,13.61
2019-03-20T19:39:02.924Z,13.62
2019-03-20T19:41:34.405Z,13.63
2019-03-20T19:44:04.823Z,13.68
2019-03-20T19:46:35.401Z,13.68
2019-03-20T19:49:05.831Z,13.72
2019-03-20T19:51:36.036Z,13.83
2019-03-20T19:54:06.599Z,13.85
2019-03-20T19:56:37.154Z,13.85
2019-03-20T19:59:07.399Z,13.95
2019-03-20T20:01:37.654Z,13.99
2019-03-20T20:04:08.827Z,13.97
2019-03-20T20:06:38.971Z,14.02
2019-03-20T20:09:10.023Z,14.13
2019-03-20T20:11:40.676Z,14.16
2019-03-20T20:14:10.867Z,14.15
2019-03-20T20:16:40.991Z,14.16
2019-03-20T20:19:11.260Z,14.12
2019-03-20T20:21:41.701Z,14.17
2019-03-20T20:24:11.721Z,14.15
2019-03-20T20:26:42.881Z,14.08
2019-03-20T20:29:13.717Z,14.07
2019-03-20T20:31:44.247Z,14.10
2019-03-20T20:34:14.498Z,14.07
2019-03-20T20:36:44.826Z,14.27
2019-03-20T20:39:15.224Z,14.20
2019-03-20T20:41:45.425Z,14.18
2019-03-20T20:44:15.745Z,14.32
2019-03-20T20:46:46.259Z,14.15
2019-03-20T20:49:16.647Z,14.14
2019-03-20T20:51:47.020Z,14.10
2019-03-20T20:54:17.327Z,14.03
2019-03-20T20:56:47.730Z,14.13
2019-03-20T20:59:18.037Z,13.95
2019-03-20T21:01:48.393Z,13.97
2019-03-20T21:04:18.938Z,14.11
2019-03-20T21:06:49.183Z,14.18
2019-03-20T21:09:19.552Z,14.13
2019-03-20T21:11:50.209Z,14.10
2019-03-20T21:14:20.609Z,14.22
2019-03-20T21:16:51.343Z,14.28
2019-03-20T21:19:40.881Z,14.30
2019-03-20T21:22:51.592Z,14.24
2019-03-20T21:25:23.376Z,14.33
2019-03-20T21:29:07.539Z,14.26
2019-03-20T21:31:45.210Z,14.37
2019-03-20T21:35:11.309Z,14.28
2019-03-20T21:38:09.595Z,14.19
2019-03-20T21:40:49.910Z,14.13
2019-03-20T21:43:44.251Z,14.04
2019-03-20T21:46:49.990Z,13.99
2019-03-20T21:49:20.846Z,13.96
2019-03-20T21:51:51.689Z,13.77
2019-03-20T21:55:02.688Z,13.64
2019-03-20T21:57:53.567Z,13.64
2019-03-20T22:00:55.831Z,13.74
2019-03-20T22:03:26.628Z,13.68
2019-03-20T22:06:43.382Z,13.80
2019-03-20T22:09:37.828Z,13.91
2019-03-20T22:12:30.832Z,13.94
2019-03-20T22:15:15.706Z,13.80
2019-03-20T22:18:26.010Z,13.69
2019-03-20T22:21:18.855Z,13.68
2019-03-20T22:24:09.414Z,13.76
2019-03-20T22:27:17.790Z,13.71
2019-03-20T22:29:48.526Z,13.77
2019-03-20T22:33:01.085Z,13.82
2019-03-20T22:35:51.221Z,13.76
2019-03-20T22:39:00.692Z,13.74
2019-03-20T22:41:54.470Z,13.68
2019-03-20T22:44:25.281Z,13.61
2019-03-20T22:47:34.867Z,13.51
2019-03-20T22:50:23.526Z,13.42
2019-03-20T22:53:34.197Z,13.33
2019-03-20T22:56:37.394Z,13.34
2019-03-20T22:59:08.428Z,13.20
2019-03-20T23:01:47.849Z,12.72
2019-03-20T23:04:26.163Z,12.48
2019-03-20T23:06:57.339Z,12.46
2019-03-20T23:09:28.193Z,12.44
2019-03-20T23:12:01.029Z,12.35
2019-03-20T23:14:32.338Z,12.36
2019-03-20T23:17:03.188Z,12.42
2019-03-20T23:19:34.036Z,12.45
2019-03-20T23:22:05.124Z,12.48
2019-03-20T23:24:36.176Z,12.54
2019-03-20T23:27:10.083Z,12.25
2019-03-20T23:29:41.224Z,12.00
2019-03-20T23:32:12.487Z,12.27
2019-03-20T23:34:43.622Z,12.09
2019-03-20T23:37:14.340Z,12.04
2019-03-20T23:39:45.438Z,11.96
2019-03-20T23:42:16.602Z,12.15
2019-03-20T23:44:47.427Z,11.97
2019-03-20T23:47:21.454Z,12.02
2019-03-20T23:49:52.346Z,11.91
2019-03-20T23:52:23.574Z,11.48
2019-03-20T23:54:56.594Z,11.64
2019-03-20T23:57:27.768Z,11.50
